sensor_id;sensor_type;location;lat;lon;timestamp;temperature;humidity
59857;DHT22;45733;52.668;6.860;2022-08-07T00:01:12;11.60;99.90
59857;DHT22;45733;52.668;6.860;2022-08-07T00:03:38;11.50;99.90
59857;DHT22;45733;52.668;6.860;2022-08-07T00:06:04;11.50;99.90
59857;DHT22;45733;52.668;6.860;2022-08-07T00:08:31;11.40;99.90
59857;DHT22;45733;52.668;6.860;2022-08-07T00:10:56;11.50;99.90
59857;DHT22;45733;52.668;6.860;2022-08-07T00:13:23;11.40;99.90
59857;DHT22;45733;52.668;6.860;2022-08-07T00:15:50;11.40;99.90
59857;DHT22;45733;52.668;6.860;2022-08-07T00:18:21;11.30;99.90
59857;DHT22;45733;52.668;6.860;2022-08-07T00:20:47;11.30;99.90
59857;DHT22;45733;52.668;6.860;2022-08-07T00:23:16;11.20;99.90
59857;DHT22;45733;52.668;6.860;2022-08-07T00:25:43;11.20;99.90
59857;DHT22;45733;52.668;6.860;2022-08-07T00:28:09;11.30;99.90
59857;DHT22;45733;52.668;6.860;2022-08-07T00:30:34;11.20;99.90
59857;DHT22;45733;52.668;6.860;2022-08-07T00:33:00;11.10;99.90
59857;DHT22;45733;52.668;6.860;2022-08-07T00:35:27;11.00;99.90
59857;DHT22;45733;52.668;6.860;2022-08-07T00:37:53;11.10;99.90
59857;DHT22;45733;52.668;6.860;2022-08-07T00:40:20;11.10;99.90
59857;DHT22;45733;52.668;6.860;2022-08-07T00:42:46;11.10;99.90
59857;DHT22;45733;52.668;6.860;2022-08-07T00:45:12;11.10;99.90
59857;DHT22;45733;52.668;6.860;2022-08-07T00:47:38;11.10;99.90
59857;DHT22;45733;52.668;6.860;2022-08-07T00:50:04;11.10;99.90
59857;DHT22;45733;52.668;6.860;2022-08-07T00:52:31;11.10;99.90
59857;DHT22;45733;52.668;6.860;2022-08-07T00:54:57;11.10;99.90
59857;DHT22;45733;52.668;6.860;2022-08-07T00:57:24;11.10;99.90
59857;DHT22;45733;52.668;6.860;2022-08-07T00:59:50;11.10;99.90
59857;DHT22;45733;52.668;6.860;2022-08-07T01:02:16;11.10;99.90
59857;DHT22;45733;52.668;6.860;2022-08-07T01:04:42;11.00;99.90
59857;DHT22;45733;52.668;6.860;2022-08-07T01:07:08;11.10;99.90
59857;DHT22;45733;52.668;6.860;2022-08-07T01:09:34;11.10;99.90
59857;DHT22;45733;52.668;6.860;2022-08-07T01:12:00;11.00;99.90
59857;DHT22;45733;52.668;6.860;2022-08-07T01:14:26;11.00;99.90
59857;DHT22;45733;52.668;6.860;2022-08-07T01:16:52;11.10;99.90
59857;DHT22;45733;52.668;6.860;2022-08-07T01:19:20;11.10;99.90
59857;DHT22;45733;52.668;6.860;2022-08-07T01:21:49;11.10;99.90
59857;DHT22;45733;52.668;6.860;2022-08-07T01:24:16;11.10;99.90
59857;DHT22;45733;52.668;6.860;2022-08-07T01:26:43;11.10;99.90
59857;DHT22;45733;52.668;6.860;2022-08-07T01:29:09;11.10;99.90
59857;DHT22;45733;52.668;6.860;2022-08-07T01:31:38;11.00;99.90
59857;DHT22;45733;52.668;6.860;2022-08-07T01:34:05;11.00;99.90
59857;DHT22;45733;52.668;6.860;2022-08-07T01:36:31;11.00;99.90
59857;DHT22;45733;52.668;6.860;2022-08-07T01:38:57;10.90;99.90
59857;DHT22;45733;52.668;6.860;2022-08-07T01:41:24;10.90;99.90
59857;DHT22;45733;52.668;6.860;2022-08-07T01:43:51;10.80;99.90
59857;DHT22;45733;52.668;6.860;2022-08-07T01:46:18;10.80;99.90
59857;DHT22;45733;52.668;6.860;2022-08-07T01:48:45;10.80;99.90
59857;DHT22;45733;52.668;6.860;2022-08-07T01:51:20;10.80;99.90
59857;DHT22;45733;52.668;6.860;2022-08-07T01:53:51;10.80;99.90
59857;DHT22;45733;52.668;6.860;2022-08-07T01:59:28;10.80;99.90
59857;DHT22;45733;52.668;6.860;2022-08-07T02:02:04;10.80;99.90
59857;DHT22;45733;52.668;6.860;2022-08-07T02:04:46;10.80;99.90
59857;DHT22;45733;52.668;6.860;2022-08-07T02:07:16;10.70;99.90
59857;DHT22;45733;52.668;6.860;2022-08-07T02:09:45;10.70;99.90
59857;DHT22;45733;52.668;6.860;2022-08-07T02:12:13;10.60;99.90
59857;DHT22;45733;52.668;6.860;2022-08-07T02:14:46;10.60;99.90
59857;DHT22;45733;52.668;6.860;2022-08-07T02:17:13;10.50;99.90
59857;DHT22;45733;52.668;6.860;2022-08-07T02:19:44;10.40;99.90
59857;DHT22;45733;52.668;6.860;2022-08-07T02:22:12;10.50;99.90
59857;DHT22;45733;52.668;6.860;2022-08-07T02:24:43;10.50;99.90
59857;DHT22;45733;52.668;6.860;2022-08-07T02:27:10;10.40;99.90
59857;DHT22;45733;52.668;6.860;2022-08-07T02:29:38;10.40;99.90
59857;DHT22;45733;52.668;6.860;2022-08-07T02:32:05;10.40;99.90
59857;DHT22;45733;52.668;6.860;2022-08-07T02:34:32;10.40;99.90
59857;DHT22;45733;52.668;6.860;2022-08-07T02:37:00;10.40;99.90
59857;DHT22;45733;52.668;6.860;2022-08-07T02:39:29;10.40;99.90
59857;DHT22;45733;52.668;6.860;2022-08-07T02:41:55;10.40;99.90
59857;DHT22;45733;52.668;6.860;2022-08-07T02:44:23;10.40;99.90
59857;DHT22;45733;52.668;6.860;2022-08-07T02:46:51;10.30;99.90
59857;DHT22;45733;52.668;6.860;2022-08-07T02:49:19;10.20;99.90
59857;DHT22;45733;52.668;6.860;2022-08-07T02:51:46;10.30;99.90
59857;DHT22;45733;52.668;6.860;2022-08-07T02:54:14;10.20;99.90
59857;DHT22;45733;52.668;6.860;2022-08-07T02:56:41;10.20;99.90
59857;DHT22;45733;52.668;6.860;2022-08-07T02:59:10;10.20;99.90
59857;DHT22;45733;52.668;6.860;2022-08-07T03:01:40;10.20;99.90
59857;DHT22;45733;52.668;6.860;2022-08-07T03:04:08;10.20;99.90
59857;DHT22;45733;52.668;6.860;2022-08-07T03:06:35;10.20;99.90
59857;DHT22;45733;52.668;6.860;2022-08-07T03:09:03;10.10;99.90
59857;DHT22;45733;52.668;6.860;2022-08-07T03:11:30;10.10;99.90
59857;DHT22;45733;52.668;6.860;2022-08-07T03:13:57;10.20;99.90
59857;DHT22;45733;52.668;6.860;2022-08-07T03:16:24;10.10;99.90
59857;DHT22;45733;52.668;6.860;2022-08-07T03:18:51;10.10;99.90
59857;DHT22;45733;52.668;6.860;2022-08-07T03:21:17;10.10;99.90
59857;DHT22;45733;52.668;6.860;2022-08-07T03:23:44;10.10;99.90
59857;DHT22;45733;52.668;6.860;2022-08-07T03:26:10;10.00;99.90
59857;DHT22;45733;52.668;6.860;2022-08-07T03:28:50;10.00;99.90
59857;DHT22;45733;52.668;6.860;2022-08-07T03:31:17;10.00;99.90
59857;DHT22;45733;52.668;6.860;2022-08-07T03:33:47;10.00;99.90
59857;DHT22;45733;52.668;6.860;2022-08-07T03:36:14;9.90;99.90
59857;DHT22;45733;52.668;6.860;2022-08-07T03:38:41;9.90;99.90
59857;DHT22;45733;52.668;6.860;2022-08-07T03:41:08;9.90;99.90
59857;DHT22;45733;52.668;6.860;2022-08-07T03:43:35;9.80;99.90
59857;DHT22;45733;52.668;6.860;2022-08-07T03:46:02;9.80;99.90
59857;DHT22;45733;52.668;6.860;2022-08-07T03:48:31;9.80;99.90
59857;DHT22;45733;52.668;6.860;2022-08-07T03:50:58;9.80;99.90
59857;DHT22;45733;52.668;6.860;2022-08-07T03:53:25;9.70;99.90
59857;DHT22;45733;52.668;6.860;2022-08-07T03:55:52;9.70;99.90
59857;DHT22;45733;52.668;6.860;2022-08-07T03:58:20;9.70;99.90
59857;DHT22;45733;52.668;6.860;2022-08-07T04:00:48;9.70;99.90
59857;DHT22;45733;52.668;6.860;2022-08-07T04:03:15;9.70;99.90
59857;DHT22;45733;52.668;6.860;2022-08-07T04:05:40;9.80;99.90
59857;DHT22;45733;52.668;6.860;2022-08-07T04:08:09;9.70;99.90
59857;DHT22;45733;52.668;6.860;2022-08-07T04:10:35;9.80;99.90
59857;DHT22;45733;52.668;6.860;2022-08-07T04:13:02;9.90;99.90
59857;DHT22;45733;52.668;6.860;2022-08-07T04:15:28;9.90;99.90
59857;DHT22;45733;52.668;6.860;2022-08-07T04:17:54;10.00;99.90
59857;DHT22;45733;52.668;6.860;2022-08-07T04:20:21;10.00;99.90
59857;DHT22;45733;52.668;6.860;2022-08-07T04:22:47;10.00;99.90
59857;DHT22;45733;52.668;6.860;2022-08-07T04:25:14;10.00;99.90
59857;DHT22;45733;52.668;6.860;2022-08-07T04:27:42;10.00;99.90
59857;DHT22;45733;52.668;6.860;2022-08-07T04:30:08;10.00;99.90
59857;DHT22;45733;52.668;6.860;2022-08-07T04:32:34;10.00;99.90
59857;DHT22;45733;52.668;6.860;2022-08-07T04:35:06;10.00;99.90
59857;DHT22;45733;52.668;6.860;2022-08-07T04:37:33;10.00;99.90
59857;DHT22;45733;52.668;6.860;2022-08-07T04:40:03;10.00;99.90
59857;DHT22;45733;52.668;6.860;2022-08-07T04:42:29;10.10;99.90
59857;DHT22;45733;52.668;6.860;2022-08-07T04:44:57;10.10;99.90
59857;DHT22;45733;52.668;6.860;2022-08-07T04:50:09;10.20;99.90
59857;DHT22;45733;52.668;6.860;2022-08-07T04:53:40;10.30;99.90
59857;DHT22;45733;52.668;6.860;2022-08-07T04:55:50;10.40;99.90
59857;DHT22;45733;52.668;6.860;2022-08-07T04:58:32;10.60;99.90
59857;DHT22;45733;52.668;6.860;2022-08-07T05:01:11;10.60;99.90
59857;DHT22;45733;52.668;6.860;2022-08-07T05:03:47;10.90;99.90
59857;DHT22;45733;52.668;6.860;2022-08-07T05:06:38;10.80;99.90
59857;DHT22;45733;52.668;6.860;2022-08-07T05:10:13;10.90;99.90
59857;DHT22;45733;52.668;6.860;2022-08-07T05:12:22;11.40;99.90
59857;DHT22;45733;52.668;6.860;2022-08-07T05:14:52;13.40;99.90
59857;DHT22;45733;52.668;6.860;2022-08-07T05:17:20;14.80;99.90
59857;DHT22;45733;52.668;6.860;2022-08-07T05:19:49;15.60;99.90
59857;DHT22;45733;52.668;6.860;2022-08-07T05:22:18;16.30;99.90
59857;DHT22;45733;52.668;6.860;2022-08-07T05:24:45;16.90;99.90
59857;DHT22;45733;52.668;6.860;2022-08-07T05:27:13;17.60;99.90
59857;DHT22;45733;52.668;6.860;2022-08-07T05:29:41;18.10;99.90
59857;DHT22;45733;52.668;6.860;2022-08-07T05:32:09;18.70;99.90
59857;DHT22;45733;52.668;6.860;2022-08-07T05:34:36;18.90;99.90
59857;DHT22;45733;52.668;6.860;2022-08-07T05:37:03;19.30;99.90
59857;DHT22;45733;52.668;6.860;2022-08-07T05:39:29;20.00;99.90
59857;DHT22;45733;52.668;6.860;2022-08-07T05:41:56;20.40;99.90
59857;DHT22;45733;52.668;6.860;2022-08-07T05:44:22;20.30;99.90
59857;DHT22;45733;52.668;6.860;2022-08-07T05:46:49;20.70;99.90
59857;DHT22;45733;52.668;6.860;2022-08-07T05:49:16;21.10;99.90
59857;DHT22;45733;52.668;6.860;2022-08-07T05:51:44;21.40;99.90
59857;DHT22;45733;52.668;6.860;2022-08-07T05:54:11;20.80;99.90
59857;DHT22;45733;52.668;6.860;2022-08-07T05:56:38;19.10;99.90
59857;DHT22;45733;52.668;6.860;2022-08-07T05:59:05;18.50;99.90
59857;DHT22;45733;52.668;6.860;2022-08-07T06:01:35;18.10;99.90
59857;DHT22;45733;52.668;6.860;2022-08-07T06:04:04;18.10;99.90
59857;DHT22;45733;52.668;6.860;2022-08-07T06:06:33;18.50;99.90
59857;DHT22;45733;52.668;6.860;2022-08-07T06:08:59;18.60;99.90
59857;DHT22;45733;52.668;6.860;2022-08-07T06:11:25;18.30;99.90
59857;DHT22;45733;52.668;6.860;2022-08-07T06:13:52;18.10;99.90
59857;DHT22;45733;52.668;6.860;2022-08-07T06:16:20;18.20;99.90
59857;DHT22;45733;52.668;6.860;2022-08-07T06:18:47;17.90;99.90
59857;DHT22;45733;52.668;6.860;2022-08-07T06:21:14;17.20;99.90
59857;DHT22;45733;52.668;6.860;2022-08-07T06:23:40;17.80;99.90
59857;DHT22;45733;52.668;6.860;2022-08-07T06:26:10;18.50;99.90
59857;DHT22;45733;52.668;6.860;2022-08-07T06:28:51;18.80;99.90
59857;DHT22;45733;52.668;6.860;2022-08-07T06:31:17;18.50;99.90
59857;DHT22;45733;52.668;6.860;2022-08-07T06:33:43;18.60;99.90
59857;DHT22;45733;52.668;6.860;2022-08-07T06:36:11;19.00;99.90
59857;DHT22;45733;52.668;6.860;2022-08-07T06:38:36;18.60;99.90
59857;DHT22;45733;52.668;6.860;2022-08-07T06:41:06;19.10;99.90
59857;DHT22;45733;52.668;6.860;2022-08-07T06:43:33;19.40;99.90
59857;DHT22;45733;52.668;6.860;2022-08-07T06:46:02;18.80;99.90
59857;DHT22;45733;52.668;6.860;2022-08-07T06:48:28;19.50;99.90
59857;DHT22;45733;52.668;6.860;2022-08-07T06:51:00;19.80;99.90
59857;DHT22;45733;52.668;6.860;2022-08-07T06:53:27;20.30;99.90
59857;DHT22;45733;52.668;6.860;2022-08-07T06:55:55;20.60;99.90
59857;DHT22;45733;52.668;6.860;2022-08-07T06:58:21;20.70;99.90
59857;DHT22;45733;52.668;6.860;2022-08-07T07:00:49;20.10;99.90
59857;DHT22;45733;52.668;6.860;2022-08-07T07:03:15;20.70;99.90
59857;DHT22;45733;52.668;6.860;2022-08-07T07:05:42;20.80;99.90
59857;DHT22;45733;52.668;6.860;2022-08-07T07:08:08;20.80;99.90
59857;DHT22;45733;52.668;6.860;2022-08-07T07:10:36;20.30;99.90
59857;DHT22;45733;52.668;6.860;2022-08-07T07:13:11;20.00;99.90
59857;DHT22;45733;52.668;6.860;2022-08-07T07:15:43;20.50;99.90
59857;DHT22;45733;52.668;6.860;2022-08-07T07:18:18;20.50;99.90
59857;DHT22;45733;52.668;6.860;2022-08-07T07:20:55;21.00;99.90
59857;DHT22;45733;52.668;6.860;2022-08-07T07:23:22;21.20;99.90
59857;DHT22;45733;52.668;6.860;2022-08-07T07:25:51;20.70;99.90
59857;DHT22;45733;52.668;6.860;2022-08-07T07:28:29;20.80;99.90
59857;DHT22;45733;52.668;6.860;2022-08-07T07:31:01;20.70;99.90
59857;DHT22;45733;52.668;6.860;2022-08-07T07:33:29;20.90;99.90
59857;DHT22;45733;52.668;6.860;2022-08-07T07:35:56;21.00;99.90
59857;DHT22;45733;52.668;6.860;2022-08-07T07:38:23;21.00;99.90
59857;DHT22;45733;52.668;6.860;2022-08-07T07:40:56;20.90;99.90
59857;DHT22;45733;52.668;6.860;2022-08-07T07:43:24;21.00;99.90
59857;DHT22;45733;52.668;6.860;2022-08-07T07:45:52;21.20;99.90
59857;DHT22;45733;52.668;6.860;2022-08-07T07:48:23;21.00;99.90
59857;DHT22;45733;52.668;6.860;2022-08-07T07:50:51;20.70;99.90
59857;DHT22;45733;52.668;6.860;2022-08-07T07:53:19;21.10;99.90
59857;DHT22;45733;52.668;6.860;2022-08-07T07:55:45;21.30;99.90
59857;DHT22;45733;52.668;6.860;2022-08-07T07:58:13;21.40;99.90
59857;DHT22;45733;52.668;6.860;2022-08-07T08:00:41;21.20;99.90
59857;DHT22;45733;52.668;6.860;2022-08-07T08:03:12;21.10;99.90
59857;DHT22;45733;52.668;6.860;2022-08-07T08:05:41;21.20;99.90
59857;DHT22;45733;52.668;6.860;2022-08-07T08:08:15;21.40;99.90
59857;DHT22;45733;52.668;6.860;2022-08-07T08:10:41;21.40;99.90
59857;DHT22;45733;52.668;6.860;2022-08-07T08:13:08;21.80;99.90
59857;DHT22;45733;52.668;6.860;2022-08-07T08:15:38;22.00;99.90
59857;DHT22;45733;52.668;6.860;2022-08-07T08:18:09;22.30;99.90
59857;DHT22;45733;52.668;6.860;2022-08-07T08:20:37;22.30;99.90
59857;DHT22;45733;52.668;6.860;2022-08-07T08:23:08;22.40;99.90
59857;DHT22;45733;52.668;6.860;2022-08-07T08:25:55;22.30;99.90
59857;DHT22;45733;52.668;6.860;2022-08-07T08:28:42;22.10;99.90
59857;DHT22;45733;52.668;6.860;2022-08-07T08:31:11;21.80;99.90
59857;DHT22;45733;52.668;6.860;2022-08-07T08:33:40;22.20;99.90
59857;DHT22;45733;52.668;6.860;2022-08-07T08:36:07;22.40;99.90
59857;DHT22;45733;52.668;6.860;2022-08-07T08:38:37;22.30;99.90
59857;DHT22;45733;52.668;6.860;2022-08-07T08:55:21;22.70;99.90
59857;DHT22;45733;52.668;6.860;2022-08-07T08:58:07;22.80;99.90
59857;DHT22;45733;52.668;6.860;2022-08-07T09:00:47;22.10;99.90
59857;DHT22;45733;52.668;6.860;2022-08-07T09:05:58;23.00;99.90
59857;DHT22;45733;52.668;6.860;2022-08-07T09:08:35;23.20;99.90
59857;DHT22;45733;52.668;6.860;2022-08-07T09:11:48;23.10;99.90
59857;DHT22;45733;52.668;6.860;2022-08-07T09:19:45;23.40;99.90
59857;DHT22;45733;52.668;6.860;2022-08-07T09:22:24;23.70;99.90
59857;DHT22;45733;52.668;6.860;2022-08-07T09:25:21;23.80;99.90
59857;DHT22;45733;52.668;6.860;2022-08-07T09:28:05;24.00;99.90
59857;DHT22;45733;52.668;6.860;2022-08-07T09:34:00;24.20;99.90
59857;DHT22;45733;52.668;6.860;2022-08-07T09:36:57;24.20;99.90
59857;DHT22;45733;52.668;6.860;2022-08-07T09:40:46;23.80;99.90
59857;DHT22;45733;52.668;6.860;2022-08-07T09:42:53;23.90;99.90
59857;DHT22;45733;52.668;6.860;2022-08-07T09:45:46;24.10;99.90
59857;DHT22;45733;52.668;6.860;2022-08-07T09:53:41;24.20;99.90
59857;DHT22;45733;52.668;6.860;2022-08-07T09:59:26;24.80;99.90
59857;DHT22;45733;52.668;6.860;2022-08-07T10:10:21;25.40;99.00
59857;DHT22;45733;52.668;6.860;2022-08-07T10:13:23;25.10;98.50
59857;DHT22;45733;52.668;6.860;2022-08-07T10:33:01;25.90;98.20
59857;DHT22;45733;52.668;6.860;2022-08-07T10:36:04;26.50;98.30
59857;DHT22;45733;52.668;6.860;2022-08-07T10:38:47;26.60;97.80
59857;DHT22;45733;52.668;6.860;2022-08-07T10:41:34;26.50;96.40
59857;DHT22;45733;52.668;6.860;2022-08-07T10:47:19;26.50;95.70
59857;DHT22;45733;52.668;6.860;2022-08-07T10:50:51;26.90;96.60
59857;DHT22;45733;52.668;6.860;2022-08-07T10:53:06;26.80;95.30
59857;DHT22;45733;52.668;6.860;2022-08-07T10:55:44;25.90;94.50
59857;DHT22;45733;52.668;6.860;2022-08-07T11:04:13;24.00;96.40
59857;DHT22;45733;52.668;6.860;2022-08-07T11:06:56;24.50;97.50
59857;DHT22;45733;52.668;6.860;2022-08-07T11:09:30;25.10;97.00
59857;DHT22;45733;52.668;6.860;2022-08-07T11:12:10;25.40;96.90
59857;DHT22;45733;52.668;6.860;2022-08-07T11:14:59;25.60;95.80
59857;DHT22;45733;52.668;6.860;2022-08-07T11:17:37;26.10;94.90
59857;DHT22;45733;52.668;6.860;2022-08-07T11:20:25;25.90;95.40
59857;DHT22;45733;52.668;6.860;2022-08-07T11:29:10;26.50;95.80
59857;DHT22;45733;52.668;6.860;2022-08-07T11:31:59;26.70;94.90
59857;DHT22;45733;52.668;6.860;2022-08-07T11:35:07;27.10;94.10
59857;DHT22;45733;52.668;6.860;2022-08-07T11:43:19;27.30;94.80
59857;DHT22;45733;52.668;6.860;2022-08-07T11:51:26;27.10;93.50
59857;DHT22;45733;52.668;6.860;2022-08-07T11:54:10;27.30;93.10
59857;DHT22;45733;52.668;6.860;2022-08-07T12:11:25;27.40;92.70
59857;DHT22;45733;52.668;6.860;2022-08-07T12:16:43;27.80;91.60
59857;DHT22;45733;52.668;6.860;2022-08-07T12:27:49;27.40;90.40
59857;DHT22;45733;52.668;6.860;2022-08-07T12:30:19;27.40;90.70
59857;DHT22;45733;52.668;6.860;2022-08-07T12:32:59;27.70;91.10
59857;DHT22;45733;52.668;6.860;2022-08-07T12:35:27;27.50;90.40
59857;DHT22;45733;52.668;6.860;2022-08-07T12:37:56;27.20;83.50
59857;DHT22;45733;52.668;6.860;2022-08-07T12:40:26;27.30;89.90
59857;DHT22;45733;52.668;6.860;2022-08-07T12:42:55;27.70;89.70
59857;DHT22;45733;52.668;6.860;2022-08-07T12:45:25;27.70;86.90
59857;DHT22;45733;52.668;6.860;2022-08-07T12:48:01;27.70;88.80
59857;DHT22;45733;52.668;6.860;2022-08-07T12:50:41;27.70;86.00
59857;DHT22;45733;52.668;6.860;2022-08-07T12:53:14;27.90;87.90
59857;DHT22;45733;52.668;6.860;2022-08-07T12:55:49;28.10;89.30
59857;DHT22;45733;52.668;6.860;2022-08-07T12:58:17;28.10;88.30
59857;DHT22;45733;52.668;6.860;2022-08-07T13:04:08;27.60;87.60
59857;DHT22;45733;52.668;6.860;2022-08-07T13:21:00;26.20;89.80
59857;DHT22;45733;52.668;6.860;2022-08-07T13:23:42;25.80;90.50
59857;DHT22;45733;52.668;6.860;2022-08-07T13:31:35;25.50;91.10
59857;DHT22;45733;52.668;6.860;2022-08-07T13:36:51;26.10;90.10
59857;DHT22;45733;52.668;6.860;2022-08-07T13:42:13;27.10;88.90
59857;DHT22;45733;52.668;6.860;2022-08-07T13:44:41;26.70;87.30
59857;DHT22;45733;52.668;6.860;2022-08-07T13:47:09;26.70;87.40
59857;DHT22;45733;52.668;6.860;2022-08-07T13:49:43;26.90;89.70
59857;DHT22;45733;52.668;6.860;2022-08-07T13:52:10;27.00;88.80
59857;DHT22;45733;52.668;6.860;2022-08-07T13:54:39;27.30;87.70
59857;DHT22;45733;52.668;6.860;2022-08-07T13:57:10;27.40;88.10
59857;DHT22;45733;52.668;6.860;2022-08-07T13:59:43;26.40;86.40
59857;DHT22;45733;52.668;6.860;2022-08-07T14:02:12;25.70;88.30
59857;DHT22;45733;52.668;6.860;2022-08-07T14:04:53;25.50;90.40
59857;DHT22;45733;52.668;6.860;2022-08-07T14:07:23;25.20;90.80
59857;DHT22;45733;52.668;6.860;2022-08-07T14:09:59;25.10;90.90
59857;DHT22;45733;52.668;6.860;2022-08-07T14:15:02;26.20;89.70
59857;DHT22;45733;52.668;6.860;2022-08-07T14:17:30;26.20;90.60
59857;DHT22;45733;52.668;6.860;2022-08-07T14:20:11;25.40;90.20
59857;DHT22;45733;52.668;6.860;2022-08-07T14:22:41;25.10;90.00
59857;DHT22;45733;52.668;6.860;2022-08-07T14:25:12;26.00;90.10
59857;DHT22;45733;52.668;6.860;2022-08-07T14:27:50;26.40;90.10
59857;DHT22;45733;52.668;6.860;2022-08-07T14:30:17;26.50;87.10
59857;DHT22;45733;52.668;6.860;2022-08-07T14:32:53;26.60;90.50
59857;DHT22;45733;52.668;6.860;2022-08-07T14:35:27;26.70;90.40
59857;DHT22;45733;52.668;6.860;2022-08-07T14:37:57;26.70;89.60
59857;DHT22;45733;52.668;6.860;2022-08-07T14:40:26;26.60;89.10
59857;DHT22;45733;52.668;6.860;2022-08-07T14:43:07;26.70;89.60
59857;DHT22;45733;52.668;6.860;2022-08-07T14:45:44;27.30;89.80
59857;DHT22;45733;52.668;6.860;2022-08-07T14:48:12;27.50;89.80
59857;DHT22;45733;52.668;6.860;2022-08-07T14:50:49;27.50;86.80
59857;DHT22;45733;52.668;6.860;2022-08-07T14:53:17;27.50;83.40
59857;DHT22;45733;52.668;6.860;2022-08-07T14:55:44;27.40;83.10
59857;DHT22;45733;52.668;6.860;2022-08-07T14:58:12;27.40;83.30
59857;DHT22;45733;52.668;6.860;2022-08-07T15:00:41;27.50;84.30
59857;DHT22;45733;52.668;6.860;2022-08-07T15:03:08;27.10;83.00
59857;DHT22;45733;52.668;6.860;2022-08-07T15:05:35;26.50;83.90
59857;DHT22;45733;52.668;6.860;2022-08-07T15:08:06;26.20;85.10
59857;DHT22;45733;52.668;6.860;2022-08-07T15:10:39;25.90;83.20
59857;DHT22;45733;52.668;6.860;2022-08-07T15:13:15;26.30;84.50
59857;DHT22;45733;52.668;6.860;2022-08-07T15:15:45;26.30;84.70
59857;DHT22;45733;52.668;6.860;2022-08-07T15:18:17;26.40;86.40
59857;DHT22;45733;52.668;6.860;2022-08-07T15:20:45;26.20;84.50
59857;DHT22;45733;52.668;6.860;2022-08-07T15:23:18;26.30;85.50
59857;DHT22;45733;52.668;6.860;2022-08-07T15:25:49;26.20;85.30
59857;DHT22;45733;52.668;6.860;2022-08-07T15:28:16;26.00;86.70
59857;DHT22;45733;52.668;6.860;2022-08-07T15:30:45;26.00;86.30
59857;DHT22;45733;52.668;6.860;2022-08-07T15:33:16;26.00;86.70
59857;DHT22;45733;52.668;6.860;2022-08-07T15:35:49;26.10;86.50
59857;DHT22;45733;52.668;6.860;2022-08-07T15:38:16;26.50;86.60
59857;DHT22;45733;52.668;6.860;2022-08-07T15:40:45;26.40;88.50
59857;DHT22;45733;52.668;6.860;2022-08-07T15:45:40;26.30;88.30
59857;DHT22;45733;52.668;6.860;2022-08-07T15:48:14;26.30;88.80
59857;DHT22;45733;52.668;6.860;2022-08-07T15:50:55;26.50;85.40
59857;DHT22;45733;52.668;6.860;2022-08-07T15:53:24;26.80;86.80
59857;DHT22;45733;52.668;6.860;2022-08-07T15:55:56;26.30;88.10
59857;DHT22;45733;52.668;6.860;2022-08-07T15:58:50;26.40;86.20
59857;DHT22;45733;52.668;6.860;2022-08-07T16:01:21;25.90;86.10
59857;DHT22;45733;52.668;6.860;2022-08-07T16:03:51;25.30;88.90
59857;DHT22;45733;52.668;6.860;2022-08-07T16:12:06;25.80;88.00
59857;DHT22;45733;52.668;6.860;2022-08-07T16:15:03;25.70;86.60
59857;DHT22;45733;52.668;6.860;2022-08-07T16:18:04;25.80;87.70
59857;DHT22;45733;52.668;6.860;2022-08-07T16:20:58;25.90;87.20
59857;DHT22;45733;52.668;6.860;2022-08-07T16:28:53;26.10;87.50
59857;DHT22;45733;52.668;6.860;2022-08-07T16:32:21;25.70;84.50
59857;DHT22;45733;52.668;6.860;2022-08-07T16:34:51;25.70;87.20
59857;DHT22;45733;52.668;6.860;2022-08-07T16:37:40;25.70;85.00
59857;DHT22;45733;52.668;6.860;2022-08-07T16:40:33;25.40;86.70
59857;DHT22;45733;52.668;6.860;2022-08-07T16:48:24;24.40;90.50
59857;DHT22;45733;52.668;6.860;2022-08-07T16:59:43;23.50;93.50
59857;DHT22;45733;52.668;6.860;2022-08-07T17:05:07;23.70;93.30
59857;DHT22;45733;52.668;6.860;2022-08-07T17:21:02;22.90;94.10
59857;DHT22;45733;52.668;6.860;2022-08-07T17:26:32;23.20;94.50
59857;DHT22;45733;52.668;6.860;2022-08-07T17:31:50;23.10;94.70
59857;DHT22;45733;52.668;6.860;2022-08-07T17:34:44;23.00;94.00
59857;DHT22;45733;52.668;6.860;2022-08-07T17:37:28;23.20;94.40
59857;DHT22;45733;52.668;6.860;2022-08-07T17:39:57;23.20;95.20
59857;DHT22;45733;52.668;6.860;2022-08-07T17:45:08;22.90;95.10
59857;DHT22;45733;52.668;6.860;2022-08-07T17:47:49;22.70;95.40
59857;DHT22;45733;52.668;6.860;2022-08-07T17:50:49;22.40;95.60
59857;DHT22;45733;52.668;6.860;2022-08-07T17:53:33;22.40;95.50
59857;DHT22;45733;52.668;6.860;2022-08-07T17:56:08;22.40;96.10
59857;DHT22;45733;52.668;6.860;2022-08-07T17:58:42;22.10;96.10
59857;DHT22;45733;52.668;6.860;2022-08-07T18:01:18;22.00;96.50
59857;DHT22;45733;52.668;6.860;2022-08-07T18:04:41;21.80;97.40
59857;DHT22;45733;52.668;6.860;2022-08-07T18:09:33;21.40;98.50
59857;DHT22;45733;52.668;6.860;2022-08-07T18:12:22;21.40;98.20
59857;DHT22;45733;52.668;6.860;2022-08-07T18:17:37;21.20;99.20
59857;DHT22;45733;52.668;6.860;2022-08-07T18:20:17;21.10;99.40
59857;DHT22;45733;52.668;6.860;2022-08-07T18:22:53;21.00;99.90
59857;DHT22;45733;52.668;6.860;2022-08-07T18:25:30;20.90;99.90
59857;DHT22;45733;52.668;6.860;2022-08-07T18:28:26;20.70;99.90
59857;DHT22;45733;52.668;6.860;2022-08-07T18:31:06;20.70;99.90
59857;DHT22;45733;52.668;6.860;2022-08-07T18:36:26;20.40;99.90
59857;DHT22;45733;52.668;6.860;2022-08-07T18:39:12;20.30;99.90
59857;DHT22;45733;52.668;6.860;2022-08-07T18:45:03;20.10;99.90
59857;DHT22;45733;52.668;6.860;2022-08-07T18:47:54;20.00;99.90
59857;DHT22;45733;52.668;6.860;2022-08-07T19:02:00;19.60;99.90
59857;DHT22;45733;52.668;6.860;2022-08-07T19:10:07;19.30;99.90
59857;DHT22;45733;52.668;6.860;2022-08-07T19:13:08;19.30;99.90
59857;DHT22;45733;52.668;6.860;2022-08-07T19:15:42;19.10;99.90
59857;DHT22;45733;52.668;6.860;2022-08-07T19:18:19;19.00;99.90
59857;DHT22;45733;52.668;6.860;2022-08-07T19:23:36;18.80;99.90
59857;DHT22;45733;52.668;6.860;2022-08-07T19:26:03;18.70;99.90
59857;DHT22;45733;52.668;6.860;2022-08-07T19:28:34;18.50;99.90
59857;DHT22;45733;52.668;6.860;2022-08-07T19:34:06;18.30;99.90
59857;DHT22;45733;52.668;6.860;2022-08-07T19:36:40;18.20;99.90
59857;DHT22;45733;52.668;6.860;2022-08-07T19:39:09;18.10;99.90
59857;DHT22;45733;52.668;6.860;2022-08-07T19:41:42;18.00;99.90
59857;DHT22;45733;52.668;6.860;2022-08-07T19:44:09;18.00;99.90
59857;DHT22;45733;52.668;6.860;2022-08-07T19:46:41;17.70;99.90
59857;DHT22;45733;52.668;6.860;2022-08-07T19:49:14;17.60;99.90
59857;DHT22;45733;52.668;6.860;2022-08-07T19:51:42;17.60;99.90
59857;DHT22;45733;52.668;6.860;2022-08-07T19:54:08;17.40;99.90
59857;DHT22;45733;52.668;6.860;2022-08-07T19:56:40;17.60;99.90
59857;DHT22;45733;52.668;6.860;2022-08-07T19:59:29;17.60;99.90
59857;DHT22;45733;52.668;6.860;2022-08-07T20:01:58;17.60;99.90